createdAt,value
2018-06-15T08:33:42.968Z,99.90
2018-06-15T08:36:13.221Z,99.90
2018-06-15T08:38:43.819Z,99.90
2018-06-15T08:41:14.074Z,99.90
2018-06-15T08:43:45.025Z,99.90
2018-06-15T08:46:15.732Z,99.90
2018-06-15T08:48:46.167Z,99.90
2018-06-15T08:51:16.384Z,99.90
2018-06-15T08:53:47.118Z,99.90
2018-06-15T08:56:17.477Z,99.90
2018-06-15T08:58:47.927Z,99.90
2018-06-15T09:01:18.320Z,99.90
2018-06-15T09:03:48.815Z,99.90
2018-06-15T09:06:19.444Z,99.90
2018-06-15T09:08:49.696Z,99.90
2018-06-15T09:11:19.935Z,99.90
2018-06-15T09:13:50.296Z,99.90
2018-06-15T09:16:20.616Z,99.90
2018-06-15T09:18:51.597Z,99.90
2018-06-15T09:21:22.061Z,99.90
2018-06-15T09:23:52.694Z,99.90
2018-06-15T09:26:23.072Z,99.90
2018-06-15T09:28:53.535Z,99.90
2018-06-15T09:31:24.243Z,99.90
2018-06-15T09:33:54.614Z,99.90
2018-06-15T09:36:24.976Z,99.90
2018-06-15T09:38:55.697Z,99.90
2018-06-15T09:41:26.102Z,99.90
2018-06-15T09:43:56.781Z,99.50
2018-06-15T09:46:27.144Z,98.80
2018-06-15T09:48:57.767Z,99.90
2018-06-15T09:51:28.093Z,99.30
2018-06-15T09:53:58.641Z,97.50
2018-06-15T09:56:29.238Z,96.90
2018-06-15T09:58:59.833Z,96.20
2018-06-15T10:01:30.500Z,95.70
2018-06-15T10:04:01.091Z,95.70
2018-06-15T10:06:31.509Z,97.30
2018-06-15T10:09:02.349Z,94.90
2018-06-15T10:11:33.687Z,95.00
2018-06-15T10:14:04.170Z,94.80
2018-06-15T10:16:34.599Z,95.20
2018-06-15T10:19:05.309Z,95.90
2018-06-15T10:21:35.716Z,95.40
2018-06-15T10:24:05.947Z,95.00
2018-06-15T10:26:36.247Z,94.50
2018-06-15T10:29:06.518Z,93.60
2018-06-15T10:31:37.115Z,93.80
2018-06-15T10:34:07.948Z,93.00
2018-06-15T10:36:38.267Z,92.10
2018-06-15T10:39:10.163Z,92.80
2018-06-15T10:41:40.968Z,91.10
2018-06-15T10:44:11.552Z,90.40
2018-06-15T10:46:41.848Z,87.70
2018-06-15T10:49:12.660Z,87.50
2018-06-15T10:51:42.909Z,87.60
2018-06-15T10:54:13.123Z,87.30
2018-06-15T10:56:43.376Z,86.50
2018-06-15T10:59:13.611Z,82.00
2018-06-15T11:01:44.107Z,82.10
2018-06-15T11:04:14.757Z,81.90
2018-06-15T11:06:44.978Z,82.90
2018-06-15T11:09:15.585Z,84.90
2018-06-15T11:11:45.899Z,84.70
2018-06-15T11:14:16.166Z,85.60
2018-06-15T11:16:46.423Z,85.10
2018-06-15T11:19:16.879Z,84.30
2018-06-15T11:21:47.408Z,81.30
2018-06-15T11:24:17.647Z,80.30
2018-06-15T11:26:47.899Z,79.10
2018-06-15T11:29:18.115Z,79.80
2018-06-15T11:31:48.364Z,73.70
2018-06-15T11:34:18.619Z,71.40
2018-06-15T11:36:49.155Z,69.30
2018-06-15T11:39:19.552Z,67.40
2018-06-15T11:41:49.820Z,65.90
2018-06-15T11:44:21.432Z,65.40
2018-06-15T11:46:52.147Z,63.70
2018-06-15T11:49:25.626Z,64.00
2018-06-15T11:51:56.475Z,64.20
2018-06-15T11:54:26.907Z,66.00
2018-06-15T11:56:57.693Z,63.00
2018-06-15T11:59:28.110Z,63.40
2018-06-15T12:02:13.060Z,62.40
2018-06-15T12:07:27.815Z,56.30
2018-06-15T12:09:58.692Z,55.20
2018-06-15T12:12:29.498Z,54.60
2018-06-15T12:15:02.965Z,52.50
2018-06-15T12:17:33.533Z,50.60
2018-06-15T12:20:04.419Z,48.70
2018-06-15T12:22:35.129Z,46.70
2018-06-15T12:25:05.786Z,46.80
2018-06-15T12:27:36.335Z,46.20
2018-06-15T12:30:06.802Z,46.00
2018-06-15T12:32:37.450Z,44.90
2018-06-15T12:35:08.071Z,45.80
2018-06-15T12:37:38.374Z,44.10
2018-06-15T12:40:09.296Z,44.00
2018-06-15T12:42:39.651Z,43.90
2018-06-15T12:45:10.840Z,42.40
2018-06-15T12:47:41.435Z,44.00
2018-06-15T12:50:11.898Z,43.00
2018-06-15T12:52:42.385Z,43.20
2018-06-15T12:55:12.988Z,44.70
2018-06-15T12:57:43.281Z,44.50
2018-06-15T13:00:13.779Z,43.90
2018-06-15T13:02:44.583Z,44.30
2018-06-15T13:05:15.213Z,44.30
2018-06-15T13:10:16.175Z,45.00
2018-06-15T13:12:46.472Z,46.00
2018-06-15T13:15:16.760Z,45.50
2018-06-15T13:17:50.276Z,44.30
2018-06-15T13:20:20.999Z,45.90
2018-06-15T13:22:51.359Z,44.50
2018-06-15T13:25:22.081Z,45.20
2018-06-15T13:27:52.378Z,44.80
2018-06-15T13:30:22.664Z,45.80
2018-06-15T13:32:53.323Z,47.10
2018-06-15T13:35:24.178Z,48.60
2018-06-15T13:37:54.483Z,48.90
2018-06-15T13:40:24.855Z,48.90
2018-06-15T13:42:55.146Z,47.90
2018-06-15T13:45:25.507Z,45.50
2018-06-15T13:47:55.759Z,43.40
2018-06-15T13:50:27.212Z,43.40
2018-06-15T13:52:57.499Z,43.10
2018-06-15T13:55:27.904Z,42.60
2018-06-15T13:57:58.395Z,41.20
2018-06-15T14:00:28.841Z,41.80
2018-06-15T14:02:59.435Z,42.10
2018-06-15T14:05:30.451Z,43.60
2018-06-15T14:08:00.707Z,43.30
2018-06-15T14:10:31.263Z,42.10
2018-06-15T14:13:01.665Z,41.70
2018-06-15T14:15:32.071Z,40.20
2018-06-15T14:18:02.623Z,38.90
2018-06-15T14:20:33.388Z,37.40
2018-06-15T14:23:04.593Z,38.50
2018-06-15T14:25:35.068Z,37.70
2018-06-15T14:28:06.294Z,38.50
2018-06-15T14:30:36.722Z,37.70
2018-06-15T14:33:07.370Z,38.50
2018-06-15T14:35:38.593Z,40.70
2018-06-15T14:38:09.148Z,40.40
2018-06-15T14:40:39.787Z,41.10
2018-06-15T14:43:10.195Z,40.60
2018-06-15T14:45:40.940Z,41.50
2018-06-15T14:48:11.779Z,43.30
2018-06-15T14:50:43.095Z,45.00
2018-06-15T14:53:13.530Z,44.10
2018-06-15T14:55:44.716Z,43.20
2018-06-15T14:58:15.001Z,42.80
2018-06-15T15:00:45.247Z,43.60
2018-06-15T15:03:15.913Z,43.60
2018-06-15T15:05:46.147Z,44.30
2018-06-15T15:08:16.384Z,45.80
2018-06-15T15:10:46.635Z,43.90
2018-06-15T15:13:16.976Z,44.30
2018-06-15T15:15:47.307Z,42.90
2018-06-15T15:18:17.553Z,40.10
2018-06-15T15:20:48.473Z,38.50
2018-06-15T15:23:18.719Z,37.10
2018-06-15T15:25:49.655Z,36.90
2018-06-15T15:28:19.875Z,37.20
2018-06-15T15:30:50.291Z,37.00
2018-06-15T15:33:20.873Z,39.70
2018-06-15T15:35:51.139Z,40.30
2018-06-15T15:38:21.439Z,40.40
2018-06-15T15:40:51.636Z,39.70
2018-06-15T15:43:21.906Z,36.70
2018-06-15T15:45:52.180Z,36.70
2018-06-15T15:48:22.453Z,35.60
2018-06-15T15:50:52.707Z,34.90
2018-06-15T15:53:26.692Z,34.00
2018-06-15T15:55:57.455Z,34.80
2018-06-15T15:58:27.750Z,35.30
2018-06-15T16:00:58.005Z,35.50
2018-06-15T16:03:53.226Z,35.90
2018-06-15T16:06:24.308Z,36.60
2018-06-15T16:08:55.150Z,36.20
2018-06-15T16:11:25.951Z,35.30
2018-06-15T16:13:56.211Z,35.40
2018-06-15T16:16:26.449Z,36.20
2018-06-15T16:18:56.743Z,35.10
2018-06-15T16:21:27.291Z,35.70
2018-06-15T16:23:57.787Z,35.50
2018-06-15T16:26:31.720Z,36.10
2018-06-15T16:29:02.144Z,36.30
2018-06-15T16:31:32.535Z,37.20
2018-06-15T16:36:43.267Z,38.00
2018-06-15T16:39:14.723Z,36.20
2018-06-15T16:41:44.939Z,35.30
2018-06-15T16:44:15.491Z,36.20
2018-06-15T16:46:46.459Z,33.60
2018-06-15T16:49:16.989Z,33.50
2018-06-15T16:51:47.724Z,34.90
2018-06-15T16:54:17.954Z,34.10
2018-06-15T16:56:48.203Z,33.50
2018-06-15T16:59:18.523Z,32.70
2018-06-15T17:01:48.792Z,32.60
2018-06-15T17:04:19.135Z,33.50
2018-06-15T17:06:49.955Z,34.10
2018-06-15T17:09:20.242Z,34.20
2018-06-15T17:11:51.557Z,34.60
2018-06-15T17:14:21.788Z,33.90
2018-06-15T17:16:52.036Z,35.70
2018-06-15T17:19:22.313Z,36.30
2018-06-15T17:21:52.587Z,36.10
2018-06-15T17:24:22.969Z,37.40
2018-06-15T17:26:53.216Z,36.40
2018-06-15T17:29:23.631Z,35.70
2018-06-15T17:31:53.904Z,36.60
2018-06-15T17:34:26.334Z,36.40
2018-06-15T17:39:29.741Z,37.30
2018-06-15T17:42:00.115Z,37.80
2018-06-15T17:44:30.771Z,38.50
2018-06-15T17:47:03.535Z,38.50
2018-06-15T17:49:33.768Z,38.80
2018-06-15T17:52:04.482Z,38.10
2018-06-15T17:54:34.741Z,38.00
2018-06-15T17:57:05.204Z,36.90
2018-06-15T17:59:35.428Z,37.20
2018-06-15T18:02:05.660Z,37.80
2018-06-15T18:04:35.946Z,37.80
2018-06-15T18:07:06.383Z,38.50
2018-06-15T18:09:36.619Z,38.90
2018-06-15T18:12:06.943Z,38.80
2018-06-15T18:14:37.260Z,38.30
2018-06-15T18:17:07.552Z,39.10
2018-06-15T18:19:37.788Z,40.40
2018-06-15T18:22:08.465Z,41.00
2018-06-15T18:24:38.816Z,41.10
2018-06-15T18:27:09.211Z,42.60
2018-06-15T18:29:39.782Z,43.10
2018-06-15T18:32:10.426Z,44.20
2018-06-15T18:34:40.951Z,45.10
2018-06-15T18:37:11.495Z,45.90
2018-06-15T18:39:41.883Z,46.40
2018-06-15T18:42:12.884Z,47.00
2018-06-15T18:44:43.109Z,47.40
2018-06-15T18:47:13.603Z,47.70
2018-06-15T18:49:44.192Z,47.80
2018-06-15T18:52:14.434Z,47.60
2018-06-15T18:54:44.747Z,47.50
2018-06-15T18:57:15.439Z,47.80
2018-06-15T18:59:45.999Z,48.30
2018-06-15T19:04:46.772Z,49.50
2018-06-15T19:07:17.099Z,50.20
2018-06-15T19:09:47.619Z,49.80
2018-06-15T19:14:48.589Z,51.20
2018-06-15T19:17:18.895Z,52.00
2018-06-15T19:19:49.481Z,53.30
2018-06-15T19:22:19.791Z,54.10
2018-06-15T19:24:50.073Z,54.60
2018-06-15T19:27:20.755Z,54.90
2018-06-15T19:29:51.743Z,54.90
2018-06-15T19:32:22.077Z,55.30
2018-06-15T19:34:52.611Z,55.00
2018-06-15T19:37:23.047Z,55.60
2018-06-15T19:39:53.312Z,55.70
2018-06-15T19:42:23.909Z,57.10
2018-06-15T19:44:54.222Z,58.80
2018-06-15T19:47:24.876Z,59.80
2018-06-15T19:49:55.096Z,60.80
2018-06-15T19:52:25.959Z,61.50
2018-06-15T19:54:56.228Z,62.50
2018-06-15T19:58:00.107Z,63.30
2018-06-15T20:00:30.763Z,64.10
2018-06-15T20:03:01.175Z,64.70
2018-06-15T20:05:31.429Z,65.40
2018-06-15T20:08:02.284Z,66.20
2018-06-15T20:10:32.496Z,66.80
2018-06-15T20:13:02.751Z,68.40
2018-06-15T20:15:33.034Z,68.20
2018-06-15T20:18:03.427Z,69.10
2018-06-15T20:20:34.035Z,70.00
2018-06-15T20:23:04.311Z,71.50
2018-06-15T20:25:34.859Z,71.90
2018-06-15T20:28:05.141Z,73.50
2018-06-15T20:30:35.408Z,74.90
2018-06-15T20:33:05.847Z,75.60
2018-06-15T20:35:36.084Z,76.80
2018-06-15T20:38:07.015Z,78.40
2018-06-15T20:40:37.271Z,79.60
2018-06-15T20:43:07.490Z,81.90
2018-06-15T20:45:38.119Z,84.20
2018-06-15T20:48:08.850Z,86.00
2018-06-15T20:50:39.111Z,88.10
2018-06-15T20:53:10.081Z,90.00
2018-06-15T20:55:40.376Z,91.30
2018-06-15T20:58:10.891Z,91.90
2018-06-15T21:00:41.419Z,92.70
2018-06-15T21:03:11.840Z,94.00
2018-06-15T21:05:42.075Z,94.80
2018-06-15T21:08:12.891Z,95.60
2018-06-15T21:10:43.099Z,96.30
2018-06-15T21:13:13.645Z,97.40
2018-06-15T21:15:43.927Z,98.50
2018-06-15T21:18:14.397Z,98.10
2018-06-15T21:20:45.264Z,98.80
2018-06-15T21:23:15.846Z,98.90
2018-06-15T21:25:46.107Z,98.60
2018-06-15T21:28:16.939Z,98.60
2018-06-15T21:30:47.167Z,98.50
2018-06-15T21:33:17.854Z,98.20
2018-06-15T21:35:48.688Z,97.80
2018-06-15T21:38:19.177Z,97.80
2018-06-15T21:40:49.779Z,97.40
2018-06-15T21:43:20.600Z,98.00
2018-06-15T21:45:50.865Z,97.50
2018-06-15T21:48:21.168Z,97.40
2018-06-15T21:50:52.043Z,97.60
2018-06-15T21:53:22.263Z,97.50
2018-06-15T21:55:52.489Z,97.40
2018-06-15T21:58:23.077Z,97.50
2018-06-15T22:00:53.309Z,97.50
2018-06-15T22:03:23.727Z,98.00
2018-06-15T22:05:54.298Z,98.30
2018-06-15T22:08:25.172Z,98.60
2018-06-15T22:10:55.491Z,98.50
2018-06-15T22:13:26.063Z,98.70
2018-06-15T22:15:56.319Z,99.10
2018-06-15T22:18:26.547Z,99.70
2018-06-15T22:20:56.791Z,99.90
2018-06-15T22:23:27.791Z,99.90
2018-06-15T22:25:58.135Z,99.90
2018-06-15T22:28:28.534Z,99.90
2018-06-15T22:30:59.126Z,99.90
2018-06-15T22:33:29.347Z,99.90
2018-06-15T22:35:59.615Z,99.90
2018-06-15T22:38:29.919Z,99.90
2018-06-15T22:41:00.203Z,99.90
2018-06-15T22:43:31.070Z,99.90
2018-06-15T22:46:01.333Z,99.90
2018-06-15T22:48:31.589Z,99.90
2018-06-15T22:51:01.837Z,99.90
2018-06-15T22:53:32.054Z,99.90
2018-06-15T22:56:02.292Z,99.90
2018-06-15T22:58:32.818Z,99.90
2018-06-15T23:01:03.019Z,99.90
2018-06-15T23:03:33.564Z,99.90
2018-06-15T23:06:04.133Z,99.90
2018-06-15T23:08:34.513Z,99.90
2018-06-15T23:11:04.799Z,99.90
2018-06-15T23:13:35.615Z,99.90
2018-06-15T23:18:36.547Z,99.90
2018-06-15T23:21:07.154Z,99.90
2018-06-15T23:23:37.410Z,99.90
2018-06-15T23:26:07.897Z,99.90
2018-06-15T23:28:38.108Z,99.90
2018-06-15T23:31:08.486Z,99.90
2018-06-15T23:36:09.335Z,99.90
2018-06-15T23:38:39.623Z,99.90
2018-06-15T23:41:10.226Z,99.90
2018-06-15T23:43:40.843Z,99.90
2018-06-15T23:46:11.084Z,99.90
2018-06-15T23:48:41.363Z,99.90
2018-06-15T23:51:11.582Z,99.90
2018-06-15T23:53:42.189Z,99.90
2018-06-15T23:56:13.119Z,99.90
2018-06-15T23:58:43.397Z,99.90
